createdAt,value
2022-08-30T00:00:43.710Z,18.11
2022-08-30T00:04:12.468Z,18.15
2022-08-30T00:07:40.338Z,18.19
2022-08-30T00:11:10.258Z,18.21
2022-08-30T00:14:40.075Z,18.21
2022-08-30T00:18:07.850Z,18.20
2022-08-30T00:21:34.967Z,18.16
2022-08-30T00:25:06.630Z,18.09
2022-08-30T00:28:35.427Z,18.04
2022-08-30T00:32:03.034Z,17.97
2022-08-30T00:35:32.956Z,17.91
2022-08-30T00:39:00.427Z,17.88
2022-08-30T00:42:28.717Z,17.86
2022-08-30T00:45:57.110Z,17.85
2022-08-30T00:49:25.061Z,17.85
2022-08-30T00:52:56.103Z,17.85
2022-08-30T00:56:25.422Z,17.86
2022-08-30T00:59:56.367Z,17.86
2022-08-30T01:03:24.255Z,17.84
2022-08-30T01:06:55.189Z,17.86
2022-08-30T01:10:25.723Z,17.87
2022-08-30T01:13:55.306Z,17.90
2022-08-30T01:17:27.269Z,17.91
2022-08-30T01:21:02.923Z,17.89
2022-08-30T01:24:30.583Z,17.89
2022-08-30T01:28:01.962Z,17.84
2022-08-30T01:31:30.176Z,17.78
2022-08-30T01:35:02.762Z,17.70
2022-08-30T01:38:39.134Z,17.61
2022-08-30T01:42:08.254Z,17.51
2022-08-30T01:45:39.191Z,17.45
2022-08-30T01:49:09.837Z,17.41
2022-08-30T01:52:39.422Z,17.38
2022-08-30T01:56:08.480Z,17.36
2022-08-30T01:59:36.867Z,17.33
2022-08-30T02:03:04.168Z,17.33
2022-08-30T02:06:34.718Z,17.33
2022-08-30T02:10:02.234Z,17.36
2022-08-30T02:13:30.993Z,17.40
2022-08-30T02:16:58.244Z,17.43
2022-08-30T02:20:25.789Z,17.43
2022-08-30T02:23:53.972Z,17.41
2022-08-30T02:27:21.662Z,17.41
2022-08-30T02:30:49.725Z,17.41
2022-08-30T02:34:18.180Z,17.37
2022-08-30T02:37:46.232Z,17.34
2022-08-30T02:41:15.819Z,17.26
2022-08-30T02:44:46.545Z,17.20
2022-08-30T02:48:14.215Z,17.17
2022-08-30T02:51:40.764Z,17.15
2022-08-30T02:55:09.964Z,17.13
2022-08-30T02:58:38.198Z,17.09
2022-08-30T03:02:11.238Z,17.08
2022-08-30T03:05:39.966Z,17.08
2022-08-30T03:09:08.468Z,17.07
2022-08-30T03:12:35.654Z,17.06
2022-08-30T03:16:03.359Z,17.06
2022-08-30T03:19:30.874Z,17.07
2022-08-30T03:22:58.785Z,17.08
2022-08-30T03:26:26.731Z,17.10
2022-08-30T03:29:55.591Z,17.11
2022-08-30T03:33:22.945Z,17.11
2022-08-30T03:36:55.171Z,17.09
2022-08-30T03:40:25.237Z,17.09
2022-08-30T03:44:00.113Z,17.05
2022-08-30T03:47:28.040Z,17.03
2022-08-30T03:50:55.418Z,17.02
2022-08-30T03:54:24.843Z,16.99
2022-08-30T03:57:52.142Z,16.96
2022-08-30T04:01:22.629Z,16.93
2022-08-30T04:04:52.707Z,16.92
2022-08-30T04:08:23.074Z,16.93
2022-08-30T04:11:50.448Z,16.93
2022-08-30T04:15:21.238Z,16.97
2022-08-30T04:18:52.255Z,17.01
2022-08-30T04:22:20.815Z,17.05
2022-08-30T04:25:47.826Z,17.09
2022-08-30T04:29:16.886Z,17.15
2022-08-30T04:32:44.184Z,17.20
2022-08-30T04:36:13.981Z,17.23
2022-08-30T04:39:42.842Z,17.28
2022-08-30T04:43:11.803Z,17.33
2022-08-30T04:46:44.799Z,17.38
2022-08-30T04:50:14.513Z,17.40
2022-08-30T04:53:41.887Z,17.42
2022-08-30T04:57:10.515Z,17.44
2022-08-30T05:00:37.593Z,17.43
2022-08-30T05:04:07.435Z,17.41
2022-08-30T05:07:35.666Z,17.38
2022-08-30T05:11:06.059Z,17.35
2022-08-30T05:14:35.622Z,17.35
2022-08-30T05:18:02.919Z,17.37
2022-08-30T05:21:30.650Z,17.40
2022-08-30T05:24:57.910Z,17.46
2022-08-30T05:28:26.323Z,17.51
2022-08-30T05:31:54.053Z,17.54
2022-08-30T05:35:25.537Z,17.58
2022-08-30T05:38:53.645Z,17.57
2022-08-30T05:42:21.161Z,17.61
2022-08-30T05:46:02.878Z,17.63
2022-08-30T05:49:31.200Z,17.69
2022-08-30T05:52:58.302Z,17.73
2022-08-30T05:56:28.755Z,17.71
2022-08-30T06:00:01.062Z,17.68
2022-08-30T06:03:29.082Z,17.68
2022-08-30T06:07:04.286Z,17.68
2022-08-30T06:10:32.280Z,17.72
2022-08-30T06:14:02.801Z,17.80
2022-08-30T06:17:30.290Z,17.85
2022-08-30T06:20:57.625Z,17.90
2022-08-30T06:24:35.985Z,17.96
2022-08-30T06:28:12.183Z,18.05
2022-08-30T06:31:42.098Z,18.13
2022-08-30T06:35:10.529Z,18.21
2022-08-30T06:38:41.834Z,18.33
2022-08-30T06:42:09.575Z,18.41
2022-08-30T06:45:47.277Z,18.46
2022-08-30T06:49:18.167Z,18.53
2022-08-30T06:52:46.190Z,18.56
2022-08-30T06:56:16.754Z,18.57
2022-08-30T06:59:43.776Z,18.61
2022-08-30T07:03:11.032Z,18.66
2022-08-30T07:06:38.058Z,18.72
2022-08-30T07:10:06.894Z,18.77
2022-08-30T07:13:34.013Z,18.83
2022-08-30T07:17:01.272Z,18.91
2022-08-30T07:20:28.358Z,18.95
2022-08-30T07:24:10.376Z,18.97
2022-08-30T07:27:39.000Z,18.99
2022-08-30T07:34:38.532Z,19.01
2022-08-30T07:38:05.867Z,19.05
2022-08-30T07:41:39.019Z,19.10
2022-08-30T07:45:08.448Z,19.17
2022-08-30T07:48:36.199Z,19.23
2022-08-30T07:52:05.209Z,19.28
2022-08-30T07:55:31.985Z,19.26
2022-08-30T07:58:59.921Z,19.25
2022-08-30T08:02:27.256Z,19.30
2022-08-30T08:05:55.097Z,19.39
2022-08-30T08:09:22.249Z,19.52
2022-08-30T08:12:49.957Z,19.62
2022-08-30T08:16:19.665Z,19.73
2022-08-30T08:19:46.959Z,19.82
2022-08-30T08:23:13.922Z,19.84
2022-08-30T08:26:45.209Z,19.87
2022-08-30T08:30:14.610Z,19.96
2022-08-30T08:33:42.398Z,20.09
2022-08-30T08:37:09.662Z,20.30
2022-08-30T08:40:47.674Z,20.47
2022-08-30T08:44:37.444Z,20.48
2022-08-30T08:48:10.285Z,20.43
2022-08-30T08:51:58.534Z,20.34
2022-08-30T08:55:28.893Z,20.30
2022-08-30T08:58:58.183Z,20.38
2022-08-30T09:02:32.458Z,20.55
2022-08-30T09:06:00.790Z,20.77
2022-08-30T09:09:33.538Z,20.96
2022-08-30T09:13:00.829Z,20.95
2022-08-30T09:16:55.240Z,20.91
2022-08-30T09:20:32.423Z,20.88
2022-08-30T09:24:04.937Z,20.86
2022-08-30T09:27:36.457Z,20.93
2022-08-30T09:31:12.189Z,21.04
2022-08-30T09:34:45.778Z,21.23
2022-08-30T09:38:13.381Z,21.21
2022-08-30T09:41:44.218Z,21.16
2022-08-30T09:45:42.199Z,21.24
2022-08-30T09:49:37.404Z,21.32
2022-08-30T09:57:13.361Z,21.58
2022-08-30T10:00:44.038Z,21.48
2022-08-30T10:04:21.722Z,21.44
2022-08-30T10:08:00.663Z,21.60
2022-08-30T10:11:34.678Z,21.82
2022-08-30T10:15:09.895Z,21.99
2022-08-30T10:18:45.379Z,22.07
2022-08-30T10:22:24.307Z,22.21
2022-08-30T10:25:55.331Z,22.34
2022-08-30T10:29:30.604Z,22.49
2022-08-30T10:33:06.940Z,22.66
2022-08-30T10:36:41.752Z,22.82
2022-08-30T10:40:34.443Z,22.89
2022-08-30T10:44:07.984Z,22.74
2022-08-30T10:47:42.058Z,22.82
2022-08-30T10:51:15.774Z,22.97
2022-08-30T10:54:48.782Z,23.17
2022-08-30T10:58:20.000Z,23.15
2022-08-30T11:02:21.358Z,23.23
2022-08-30T11:06:13.967Z,23.17
2022-08-30T11:09:55.702Z,23.25
2022-08-30T11:13:33.167Z,23.36
2022-08-30T11:17:03.024Z,23.49
2022-08-30T11:20:40.120Z,23.58
2022-08-30T11:24:12.980Z,23.59
2022-08-30T11:27:56.471Z,23.65
2022-08-30T11:31:40.632Z,23.79
2022-08-30T11:35:11.204Z,23.81
2022-08-30T11:39:05.843Z,23.73
2022-08-30T11:46:36.953Z,23.84
2022-08-30T11:50:11.176Z,23.69
2022-08-30T11:53:51.278Z,23.73
2022-08-30T11:57:31.495Z,23.79
2022-08-30T12:01:42.038Z,23.90
2022-08-30T12:05:10.326Z,23.56
2022-08-30T12:08:56.563Z,23.37
2022-08-30T12:12:53.449Z,23.45
2022-08-30T12:16:23.853Z,23.81
2022-08-30T12:19:51.083Z,24.16
2022-08-30T12:23:27.152Z,24.50
2022-08-30T12:26:55.655Z,24.84
2022-08-30T12:30:32.961Z,25.08
2022-08-30T12:34:04.563Z,25.38
2022-08-30T12:37:42.295Z,25.68
2022-08-30T12:41:19.449Z,25.88
2022-08-30T12:44:51.258Z,25.87
2022-08-30T12:48:20.448Z,25.74
2022-08-30T12:51:49.363Z,25.94
2022-08-30T12:55:21.332Z,26.23
2022-08-30T12:58:52.176Z,26.51
2022-08-30T13:02:23.095Z,26.78
2022-08-30T13:05:53.346Z,27.05
2022-08-30T13:09:32.336Z,26.96
2022-08-30T13:13:08.816Z,27.10
2022-08-30T13:16:45.441Z,27.34
2022-08-30T13:20:28.947Z,27.57
2022-08-30T13:24:00.071Z,27.31
2022-08-30T13:27:33.192Z,26.96
2022-08-30T13:31:03.545Z,26.61
2022-08-30T13:34:43.990Z,26.59
2022-08-30T13:38:12.423Z,26.99
2022-08-30T13:41:42.205Z,27.37
2022-08-30T13:49:43.197Z,28.09
2022-08-30T13:52:57.119Z,28.35
2022-08-30T13:56:31.904Z,28.47
2022-08-30T13:59:57.366Z,28.49
2022-08-30T14:03:24.246Z,28.77
2022-08-30T14:10:46.617Z,29.44
2022-08-30T14:14:23.411Z,29.70
2022-08-30T14:18:03.318Z,29.85
2022-08-30T14:21:33.124Z,29.56
2022-08-30T14:25:08.350Z,29.43
2022-08-30T14:28:38.580Z,29.31
2022-08-30T14:32:06.318Z,28.92
2022-08-30T14:35:33.609Z,28.57
2022-08-30T14:39:00.358Z,28.17
2022-08-30T14:42:27.140Z,27.82
2022-08-30T14:45:59.439Z,27.45
2022-08-30T14:49:27.191Z,27.15
2022-08-30T14:52:55.930Z,26.84
2022-08-30T14:56:24.914Z,26.53
2022-08-30T14:59:52.330Z,26.25
2022-08-30T15:03:20.960Z,26.02
2022-08-30T15:06:51.923Z,25.82
2022-08-30T15:10:21.426Z,25.64
2022-08-30T15:13:54.525Z,25.47
2022-08-30T15:17:21.681Z,25.26
2022-08-30T15:20:52.366Z,24.98
2022-08-30T15:24:30.019Z,24.71
2022-08-30T15:27:59.176Z,24.46
2022-08-30T15:31:29.658Z,24.27
2022-08-30T15:34:57.998Z,24.06
2022-08-30T15:38:25.111Z,23.89
2022-08-30T15:41:57.194Z,23.76
2022-08-30T15:45:27.015Z,23.61
2022-08-30T15:48:57.083Z,23.43
2022-08-30T15:52:29.522Z,23.30
2022-08-30T15:55:57.438Z,23.21
2022-08-30T15:59:27.907Z,23.11
2022-08-30T16:02:56.969Z,23.06
2022-08-30T16:06:30.439Z,23.00
2022-08-30T16:09:58.965Z,22.93
2022-08-30T16:13:36.393Z,22.83
2022-08-30T16:17:06.799Z,22.73
2022-08-30T16:20:36.418Z,22.65
2022-08-30T16:24:06.698Z,22.57
2022-08-30T16:27:34.319Z,22.49
2022-08-30T16:31:05.495Z,22.40
2022-08-30T16:34:35.820Z,22.26
2022-08-30T16:38:05.814Z,22.13
2022-08-30T16:41:39.990Z,22.04
2022-08-30T16:45:12.937Z,21.96
2022-08-30T16:48:42.247Z,21.85
2022-08-30T16:52:11.747Z,21.75
2022-08-30T16:55:40.371Z,21.67
2022-08-30T16:59:11.617Z,21.59
2022-08-30T17:02:39.565Z,21.51
2022-08-30T17:06:07.504Z,21.42
2022-08-30T17:09:35.842Z,21.35
2022-08-30T17:13:03.285Z,21.23
2022-08-30T17:16:41.379Z,21.15
2022-08-30T17:20:12.343Z,21.02
2022-08-30T17:23:39.902Z,20.92
2022-08-30T17:27:09.625Z,20.82
2022-08-30T17:30:38.101Z,20.74
2022-08-30T17:34:07.572Z,20.68
2022-08-30T17:37:37.530Z,20.60
2022-08-30T17:41:09.377Z,20.51
2022-08-30T17:44:42.416Z,20.44
2022-08-30T17:48:10.589Z,20.37
2022-08-30T17:51:43.098Z,20.31
2022-08-30T17:55:11.771Z,20.25
2022-08-30T17:58:42.444Z,20.18
2022-08-30T18:02:11.533Z,20.11
2022-08-30T18:05:44.288Z,20.04
2022-08-30T18:09:15.284Z,19.98
2022-08-30T18:12:43.052Z,19.93
2022-08-30T18:16:14.562Z,19.86
2022-08-30T18:19:51.159Z,19.74
2022-08-30T18:23:20.400Z,19.59
2022-08-30T18:26:50.643Z,19.47
2022-08-30T18:30:20.038Z,19.36
2022-08-30T18:33:57.212Z,19.30
2022-08-30T18:37:28.658Z,19.25
2022-08-30T18:41:02.651Z,19.20
2022-08-30T18:44:34.163Z,19.15
2022-08-30T18:48:02.070Z,19.08
2022-08-30T18:51:31.906Z,19.01
2022-08-30T18:55:01.294Z,18.96
2022-08-30T18:58:44.581Z,18.88
2022-08-30T19:02:19.134Z,18.80
2022-08-30T19:05:57.531Z,18.71
2022-08-30T19:09:43.130Z,18.61
2022-08-30T19:13:26.503Z,18.46
2022-08-30T19:17:06.051Z,18.34
2022-08-30T19:20:38.349Z,18.25
2022-08-30T19:24:12.769Z,18.18
2022-08-30T19:27:55.299Z,18.12
2022-08-30T19:31:59.988Z,18.07
2022-08-30T19:35:35.574Z,18.02
2022-08-30T19:39:06.067Z,17.97
2022-08-30T19:42:43.382Z,17.93
2022-08-30T19:46:17.052Z,17.90
2022-08-30T19:49:46.012Z,17.88
2022-08-30T19:53:25.347Z,17.86
2022-08-30T19:56:53.769Z,17.82
2022-08-30T20:00:23.608Z,17.77
2022-08-30T20:03:54.049Z,17.72
2022-08-30T20:07:34.313Z,17.66
2022-08-30T20:11:03.613Z,17.59
2022-08-30T20:14:35.380Z,17.54
2022-08-30T20:18:13.387Z,17.51
2022-08-30T20:21:46.695Z,17.46
2022-08-30T20:25:19.139Z,17.43
2022-08-30T20:28:52.753Z,17.42
2022-08-30T20:32:23.968Z,17.41
2022-08-30T20:35:54.234Z,17.40
2022-08-30T20:39:26.020Z,17.39
2022-08-30T20:42:55.398Z,17.37
2022-08-30T20:46:27.721Z,17.34
2022-08-30T20:50:00.719Z,17.31
2022-08-30T20:53:29.342Z,17.25
2022-08-30T20:56:57.789Z,17.19
2022-08-30T21:00:26.521Z,17.12
2022-08-30T21:03:54.105Z,17.02
2022-08-30T21:07:30.126Z,16.94
2022-08-30T21:10:59.160Z,16.89
2022-08-30T21:14:32.392Z,16.84
2022-08-30T21:18:02.239Z,16.79
2022-08-30T21:21:30.669Z,16.75
2022-08-30T21:24:58.102Z,16.73
2022-08-30T21:28:27.539Z,16.72
2022-08-30T21:32:04.022Z,16.71
2022-08-30T21:35:51.311Z,16.74
2022-08-30T21:39:24.641Z,16.73
2022-08-30T21:42:54.074Z,16.80
2022-08-30T21:46:21.008Z,16.79
2022-08-30T21:49:48.229Z,16.79
2022-08-30T21:53:17.151Z,16.78
2022-08-30T21:56:46.562Z,16.73
2022-08-30T22:00:20.682Z,16.67
2022-08-30T22:03:48.689Z,16.61
2022-08-30T22:07:16.665Z,16.54
2022-08-30T22:10:45.046Z,16.49
2022-08-30T22:14:14.591Z,16.44
2022-08-30T22:17:45.190Z,16.38
2022-08-30T22:21:14.479Z,16.32
2022-08-30T22:24:41.830Z,16.30
2022-08-30T22:28:09.033Z,16.28
2022-08-30T22:31:37.026Z,16.28
2022-08-30T22:35:10.584Z,16.29
2022-08-30T22:38:37.411Z,16.29
2022-08-30T22:42:10.051Z,16.33
2022-08-30T22:45:37.280Z,16.36
2022-08-30T22:49:05.318Z,16.38
2022-08-30T22:52:32.828Z,16.39
2022-08-30T22:56:00.642Z,16.39
2022-08-30T22:59:31.557Z,16.40
2022-08-30T23:02:59.474Z,16.36
2022-08-30T23:06:29.781Z,16.34
2022-08-30T23:10:00.236Z,16.29
2022-08-30T23:13:27.858Z,16.24
2022-08-30T23:16:55.010Z,16.18
2022-08-30T23:20:24.098Z,16.12
2022-08-30T23:24:09.095Z,16.06
2022-08-30T23:27:55.479Z,16.01
2022-08-30T23:31:40.596Z,15.97
2022-08-30T23:35:29.419Z,15.93
2022-08-30T23:39:15.014Z,15.87
2022-08-30T23:42:59.682Z,15.84
2022-08-30T23:46:44.349Z,15.81
2022-08-30T23:50:29.936Z,15.78
2022-08-30T23:54:13.994Z,15.75
2022-08-30T23:57:58.950Z,15.72
